Time;durP1;ratioP1;P1;durP2;ratioP2;P2;SDS_P1;SDS_P2;PMS_P1;PMS_P2;Temp;Humidity;BMP_temperature;BMP_pressure;BME280_temperature;BME280_humidity;BME280_pressure;Samples;Min_cycle;Max_cycle;Signal;HPM_P1;HPM_P2
2022/08/10 00:00:20;;;;;;;3.67;1.50;;;;;;;;;;5070062;28;20185;-67
2022/08/10 00:02:50;;;;;;;1.20;1.20;;;;;;;;;;5056495;28;20189;-67
2022/08/10 00:05:16;;;;;;;1.83;1.30;;;;;;;;;;5058011;28;20629;-67
2022/08/10 00:07:41;;;;;;;2.47;1.30;;;;;;;;;;5060461;28;20272;-67
2022/08/10 00:10:07;;;;;;;1.65;1.40;;;;;;;;;;5049116;28;20552;-67
2022/08/10 00:12:33;;;;;;;2.00;1.55;;;;;;;;;;5057077;28;20554;-67
2022/08/10 00:14:59;;;;;;;1.83;1.42;;;;;;;;;;5063802;28;20185;-67
2022/08/10 00:17:25;;;;;;;3.03;1.50;;;;;;;;;;5054446;28;20176;-67
2022/08/10 00:19:50;;;;;;;3.03;1.77;;;;;;;;;;5068516;28;20177;-67
2022/08/10 00:22:15;;;;;;;1.67;1.27;;;;;;;;;;5064604;28;20198;-67
2022/08/10 00:24:41;;;;;;;4.25;1.70;;;;;;;;;;5059300;28;20746;-67
2022/08/10 00:27:06;;;;;;;1.45;1.35;;;;;;;;;;5059779;28;20224;-67
2022/08/10 00:29:32;;;;;;;2.70;1.55;;;;;;;;;;5063311;28;20185;-67
2022/08/10 00:31:57;;;;;;;2.25;2.05;;;;;;;;;;5068182;28;20209;-67
2022/08/10 00:34:22;;;;;;;1.90;1.70;;;;;;;;;;5069338;28;20173;-67
2022/08/10 00:36:48;;;;;;;2.92;1.63;;;;;;;;;;5078093;28;20216;-67
2022/08/10 00:39:13;;;;;;;1.98;1.73;;;;;;;;;;5066979;28;20177;-67
2022/08/10 00:41:39;;;;;;;2.75;1.92;;;;;;;;;;5067330;28;20617;-67
2022/08/10 00:44:04;;;;;;;3.38;1.80;;;;;;;;;;5071523;28;20197;-67
2022/08/10 00:46:29;;;;;;;2.33;1.95;;;;;;;;;;5070029;28;20270;-67
2022/08/10 00:48:55;;;;;;;4.53;2.00;;;;;;;;;;5064066;28;20253;-67
2022/08/10 00:51:20;;;;;;;2.45;1.92;;;;;;;;;;5074860;28;20212;-67
2022/08/10 00:53:46;;;;;;;2.80;1.67;;;;;;;;;;5071136;28;20590;-67
2022/08/10 01:16:36;;;;;;;2.95;2.30;;;;;;;;;;5069271;28;20215;-67
2022/08/10 01:19:16;;;;;;;2.95;2.17;;;;;;;;;;5071389;28;20242;-67
2022/08/10 01:22:20;;;;;;;3.80;2.33;;;;;;;;;;5069551;28;20244;-67
2022/08/10 01:25:10;;;;;;;2.47;2.28;;;;;;;;;;5059787;28;20558;-68
2022/08/10 01:27:53;;;;;;;2.72;2.22;;;;;;;;;;5076087;28;20253;-67
2022/08/10 01:30:20;;;;;;;3.40;2.58;;;;;;;;;;5059506;28;20512;-67
2022/08/10 01:32:49;;;;;;;5.18;2.30;;;;;;;;;;5054797;28;20199;-67
2022/08/10 01:35:22;;;;;;;3.17;2.55;;;;;;;;;;5072530;28;20212;-67
2022/08/10 01:37:57;;;;;;;4.55;2.80;;;;;;;;;;5064252;28;20194;-67
2022/08/10 01:40:25;;;;;;;4.75;2.90;;;;;;;;;;5060359;28;20185;-67
2022/08/10 01:42:53;;;;;;;3.03;2.28;;;;;;;;;;5066748;28;20188;-68
2022/08/10 01:45:21;;;;;;;3.03;2.72;;;;;;;;;;5055364;28;20208;-68
2022/08/10 01:50:44;;;;;;;4.75;3.08;;;;;;;;;;5064273;28;20556;-68
2022/08/10 01:53:17;;;;;;;3.70;3.40;;;;;;;;;;5051609;28;20227;-68
2022/08/10 01:55:44;;;;;;;5.15;3.58;;;;;;;;;;5057474;28;20838;-67
2022/08/10 01:58:12;;;;;;;5.47;3.70;;;;;;;;;;5053556;28;20220;-67
2022/08/10 02:00:40;;;;;;;5.72;3.78;;;;;;;;;;5064500;28;20187;-67
2022/08/10 02:03:09;;;;;;;5.82;4.20;;;;;;;;;;5058595;28;20611;-67
2022/08/10 02:05:38;;;;;;;4.95;4.28;;;;;;;;;;5061444;28;20620;-67
2022/08/10 02:08:05;;;;;;;6.30;4.57;;;;;;;;;;5065866;28;20313;-67
2022/08/10 02:10:32;;;;;;;6.35;4.82;;;;;;;;;;5050688;28;20182;-67
2022/08/10 02:12:59;;;;;;;5.45;4.43;;;;;;;;;;5068104;28;20521;-67
2022/08/10 02:15:28;;;;;;;6.63;5.00;;;;;;;;;;5068604;28;20173;-68
2022/08/10 02:18:00;;;;;;;8.60;5.20;;;;;;;;;;5060749;28;20255;-68
2022/08/10 02:20:30;;;;;;;6.47;4.85;;;;;;;;;;5069188;28;20402;-68
2022/08/10 02:22:59;;;;;;;8.45;6.00;;;;;;;;;;5068708;28;20463;-67
2022/08/10 02:25:26;;;;;;;6.82;5.50;;;;;;;;;;5068751;28;20189;-67
2022/08/10 02:27:53;;;;;;;7.55;6.15;;;;;;;;;;5066319;28;20241;-67
2022/08/10 02:30:19;;;;;;;9.32;6.78;;;;;;;;;;5067715;28;20639;-68
2022/08/10 02:32:46;;;;;;;6.75;6.00;;;;;;;;;;5052111;28;20293;-68
2022/08/10 02:35:14;;;;;;;11.50;6.38;;;;;;;;;;5055048;28;20664;-67
2022/08/10 02:37:42;;;;;;;6.75;6.00;;;;;;;;;;5067951;28;20195;-67
2022/08/10 02:40:09;;;;;;;8.90;6.07;;;;;;;;;;5061941;28;20247;-67
2022/08/10 02:42:42;;;;;;;8.35;5.82;;;;;;;;;;5057575;28;20210;-67
2022/08/10 02:45:24;;;;;;;10.07;6.45;;;;;;;;;;5062283;28;20276;-67
2022/08/10 02:47:56;;;;;;;8.20;6.57;;;;;;;;;;5048730;28;20189;-67
2022/08/10 02:50:29;;;;;;;9.98;6.75;;;;;;;;;;5049843;28;20212;-68
2022/08/10 02:53:17;;;;;;;8.65;7.03;;;;;;;;;;5055424;28;20272;-68
2022/08/10 02:55:52;;;;;;;11.73;7.13;;;;;;;;;;5027838;28;20189;-68
2022/08/10 02:58:39;;;;;;;9.00;6.25;;;;;;;;;;5063363;28;20271;-68
2022/08/10 03:01:09;;;;;;;8.18;6.10;;;;;;;;;;5062021;28;20195;-68
2022/08/10 03:03:42;;;;;;;9.70;7.35;;;;;;;;;;5058033;28;20200;-68
2022/08/10 03:06:12;;;;;;;9.30;6.88;;;;;;;;;;5057375;28;20193;-68
2022/08/10 03:08:41;;;;;;;10.00;6.38;;;;;;;;;;5064695;28;20637;-68
2022/08/10 03:11:08;;;;;;;8.30;7.15;;;;;;;;;;5049368;28;20189;-68
2022/08/10 03:13:35;;;;;;;9.68;6.90;;;;;;;;;;5066709;28;20181;-68
2022/08/10 03:16:02;;;;;;;10.15;6.93;;;;;;;;;;5066627;28;20188;-68
2022/08/10 03:18:29;;;;;;;10.82;7.15;;;;;;;;;;5057367;28;20516;-68
2022/08/10 03:20:55;;;;;;;9.50;6.85;;;;;;;;;;5061002;28;20492;-67
2022/08/10 03:23:24;;;;;;;10.30;7.43;;;;;;;;;;5066698;28;20219;-67
2022/08/10 03:25:53;;;;;;;9.13;7.15;;;;;;;;;;5054781;28;20644;-67
2022/08/10 03:28:24;;;;;;;8.05;6.85;;;;;;;;;;5068959;28;20183;-68
2022/08/10 03:30:50;;;;;;;9.48;6.82;;;;;;;;;;5062768;28;20189;-68
2022/08/10 03:33:16;;;;;;;11.30;7.25;;;;;;;;;;5061879;28;20185;-68
2022/08/10 03:35:42;;;;;;;10.57;7.47;;;;;;;;;;5051289;28;20203;-68
2022/08/10 03:38:07;;;;;;;10.57;7.28;;;;;;;;;;5057833;28;20263;-68
2022/08/10 03:40:35;;;;;;;11.95;7.53;;;;;;;;;;5068484;28;20181;-68
2022/08/10 03:43:02;;;;;;;11.70;7.55;;;;;;;;;;5067363;28;20253;-68
2022/08/10 03:45:31;;;;;;;11.90;7.68;;;;;;;;;;5058444;28;20285;-68
2022/08/10 03:47:57;;;;;;;11.02;7.93;;;;;;;;;;5050544;28;20184;-68
2022/08/10 03:50:25;;;;;;;11.05;7.72;;;;;;;;;;5056776;28;20181;-68
2022/08/10 03:52:52;;;;;;;11.32;7.50;;;;;;;;;;5054304;28;20192;-68
2022/08/10 03:55:18;;;;;;;11.20;7.65;;;;;;;;;;5048405;28;20213;-68
2022/08/10 03:57:44;;;;;;;13.27;8.05;;;;;;;;;;5048373;28;20212;-68
2022/08/10 04:00:11;;;;;;;11.27;7.80;;;;;;;;;;5048302;28;20196;-68
2022/08/10 04:02:36;;;;;;;11.40;8.25;;;;;;;;;;5051392;28;20228;-68
2022/08/10 04:05:02;;;;;;;10.23;7.95;;;;;;;;;;5050768;28;20193;-68
2022/08/10 04:07:28;;;;;;;10.50;8.27;;;;;;;;;;5070930;28;20188;-68
2022/08/10 04:09:53;;;;;;;11.02;8.50;;;;;;;;;;5071996;28;20181;-68
2022/08/10 04:12:19;;;;;;;11.50;8.18;;;;;;;;;;5067485;28;20557;-68
2022/08/10 04:14:45;;;;;;;12.20;8.55;;;;;;;;;;5068626;28;20636;-68
2022/08/10 04:17:10;;;;;;;10.23;7.75;;;;;;;;;;5067159;28;20192;-68
2022/08/10 04:19:41;;;;;;;11.85;7.88;;;;;;;;;;5057317;28;20185;-68
2022/08/10 04:22:15;;;;;;;11.15;8.05;;;;;;;;;;5065087;28;20177;-67
2022/08/10 04:24:42;;;;;;;11.00;8.00;;;;;;;;;;5067711;28;20196;-67
2022/08/10 04:27:08;;;;;;;10.77;8.32;;;;;;;;;;5064154;28;20232;-67
2022/08/10 04:29:33;;;;;;;12.88;8.68;;;;;;;;;;5049868;28;20264;-67
2022/08/10 04:32:01;;;;;;;11.55;8.13;;;;;;;;;;5052173;28;20327;-67
2022/08/10 04:34:30;;;;;;;11.10;7.45;;;;;;;;;;5052164;28;20185;-67
2022/08/10 04:36:58;;;;;;;10.63;7.68;;;;;;;;;;5054765;28;20198;-67
2022/08/10 04:39:24;;;;;;;11.80;8.70;;;;;;;;;;5048652;28;20541;-67
2022/08/10 04:41:49;;;;;;;11.88;7.80;;;;;;;;;;5064709;28;20188;-67
2022/08/10 04:44:14;;;;;;;11.02;7.70;;;;;;;;;;5058185;28;20212;-67
2022/08/10 04:46:40;;;;;;;12.25;8.02;;;;;;;;;;5067493;28;20188;-67
2022/08/10 04:49:05;;;;;;;10.88;8.30;;;;;;;;;;5068807;28;20180;-67
2022/08/10 04:51:30;;;;;;;11.10;8.38;;;;;;;;;;5052497;28;20267;-67
2022/08/10 04:53:56;;;;;;;10.10;7.78;;;;;;;;;;5057563;28;20173;-68
2022/08/10 04:56:21;;;;;;;12.73;7.65;;;;;;;;;;5065713;28;20291;-68
2022/08/10 04:58:46;;;;;;;13.20;8.02;;;;;;;;;;5055753;28;20299;-68
2022/08/10 05:01:12;;;;;;;10.57;8.13;;;;;;;;;;5053945;28;20189;-67
2022/08/10 05:03:37;;;;;;;11.27;7.80;;;;;;;;;;5048459;28;20206;-67
2022/08/10 05:06:03;;;;;;;10.93;8.00;;;;;;;;;;5048497;28;20552;-68
2022/08/10 05:08:28;;;;;;;10.38;8.38;;;;;;;;;;5070196;28;20593;-68
2022/08/10 05:10:53;;;;;;;10.63;7.85;;;;;;;;;;5061343;28;20177;-68
2022/08/10 05:13:18;;;;;;;10.52;7.57;;;;;;;;;;5051358;28;20376;-68
2022/08/10 05:15:44;;;;;;;10.27;7.85;;;;;;;;;;5051870;28;20169;-68
2022/08/10 05:18:10;;;;;;;10.85;7.68;;;;;;;;;;5051490;28;20185;-68
2022/08/10 05:20:36;;;;;;;12.02;9.27;;;;;;;;;;5052766;28;20185;-68
2022/08/10 05:23:02;;;;;;;11.15;8.10;;;;;;;;;;5070359;28;20213;-68
2022/08/10 05:25:27;;;;;;;12.63;9.25;;;;;;;;;;5067158;28;20704;-68
2022/08/10 05:27:53;;;;;;;16.50;8.90;;;;;;;;;;5060590;28;20266;-68
2022/08/10 05:30:20;;;;;;;11.25;8.50;;;;;;;;;;5050986;28;20181;-68
2022/08/10 05:32:46;;;;;;;15.90;9.63;;;;;;;;;;5054198;28;20204;-68
2022/08/10 05:35:12;;;;;;;13.65;8.90;;;;;;;;;;5051303;28;20649;-68
2022/08/10 05:37:38;;;;;;;13.23;9.88;;;;;;;;;;5055217;28;20644;-68
2022/08/10 05:40:05;;;;;;;13.20;9.18;;;;;;;;;;5065189;28;20178;-68
2022/08/10 05:42:31;;;;;;;14.75;10.00;;;;;;;;;;5062665;28;20227;-68
2022/08/10 05:44:57;;;;;;;15.10;10.05;;;;;;;;;;5070164;28;20283;-68
2022/08/10 05:47:22;;;;;;;16.52;11.82;;;;;;;;;;5069642;28;20334;-68
2022/08/10 05:49:48;;;;;;;16.65;10.43;;;;;;;;;;5052942;28;20600;-68
2022/08/10 05:52:15;;;;;;;14.30;8.75;;;;;;;;;;5055701;28;20326;-68
2022/08/10 05:54:41;;;;;;;17.10;11.32;;;;;;;;;;5068786;28;20177;-68
2022/08/10 05:57:07;;;;;;;15.05;10.80;;;;;;;;;;5058427;28;20189;-68
2022/08/10 05:59:34;;;;;;;17.45;10.63;;;;;;;;;;5057301;28;20184;-68
2022/08/10 06:02:03;;;;;;;16.92;11.10;;;;;;;;;;5051926;28;20174;-68
2022/08/10 06:04:39;;;;;;;17.92;11.52;;;;;;;;;;5065809;28;20279;-68
2022/08/10 06:07:06;;;;;;;13.65;10.30;;;;;;;;;;5068379;28;20192;-68
2022/08/10 06:09:34;;;;;;;16.58;10.80;;;;;;;;;;5078904;28;20268;-68
2022/08/10 06:12:01;;;;;;;15.70;11.05;;;;;;;;;;5052490;28;20845;-68
2022/08/10 06:17:17;;;;;;;15.90;10.73;;;;;;;;;;5070117;28;20342;-68
2022/08/10 06:19:42;;;;;;;13.52;10.52;;;;;;;;;;5070020;28;20212;-68
2022/08/10 06:22:09;;;;;;;17.25;11.10;;;;;;;;;;5066086;28;20230;-68
2022/08/10 06:24:39;;;;;;;13.98;10.93;;;;;;;;;;5050135;28;20300;-68
2022/08/10 06:27:05;;;;;;;16.02;11.05;;;;;;;;;;5049895;28;20321;-68
2022/08/10 06:29:33;;;;;;;15.93;10.43;;;;;;;;;;5050834;28;20189;-68
2022/08/10 06:32:00;;;;;;;12.43;9.50;;;;;;;;;;5049366;28;20205;-68
2022/08/10 06:34:32;;;;;;;14.02;9.82;;;;;;;;;;5050516;28;20178;-69
2022/08/10 06:37:01;;;;;;;15.18;9.75;;;;;;;;;;5050035;28;20194;-69
2022/08/10 06:39:27;;;;;;;12.80;9.35;;;;;;;;;;5064272;28;20263;-68
2022/08/10 06:41:58;;;;;;;13.57;8.90;;;;;;;;;;5057940;28;20780;-68
2022/08/10 06:44:28;;;;;;;12.50;8.82;;;;;;;;;;5049508;28;20209;-70
2022/08/10 06:46:56;;;;;;;11.05;8.77;;;;;;;;;;5057377;28;20547;-69
2022/08/10 06:49:22;;;;;;;14.63;8.68;;;;;;;;;;5054880;28;20587;-68
2022/08/10 06:51:54;;;;;;;11.13;8.40;;;;;;;;;;5066820;28;20184;-68
2022/08/10 06:54:24;;;;;;;14.85;7.63;;;;;;;;;;5050070;28;20272;-69
2022/08/10 06:56:53;;;;;;;10.68;7.03;;;;;;;;;;5054582;28;20195;-68
2022/08/10 06:59:37;;;;;;;10.02;7.55;;;;;;;;;;5069991;28;20273;-68
2022/08/10 07:02:11;;;;;;;7.95;6.82;;;;;;;;;;5049522;28;20201;-68
2022/08/10 07:04:47;;;;;;;7.78;6.68;;;;;;;;;;5055032;28;20193;-68
2022/08/10 07:07:16;;;;;;;8.90;6.85;;;;;;;;;;5050979;28;20188;-68
2022/08/10 07:09:44;;;;;;;7.50;6.18;;;;;;;;;;5055990;28;20886;-69
2022/08/10 07:12:12;;;;;;;9.25;6.35;;;;;;;;;;5063483;28;20189;-69
2022/08/10 07:14:40;;;;;;;8.63;6.05;;;;;;;;;;5069590;28;20204;-69
2022/08/10 07:17:09;;;;;;;8.35;6.13;;;;;;;;;;5064033;28;20572;-68
2022/08/10 07:19:36;;;;;;;11.93;5.80;;;;;;;;;;5060493;28;20176;-70
2022/08/10 07:22:03;;;;;;;9.38;6.78;;;;;;;;;;5065326;28;20189;-69
2022/08/10 07:24:28;;;;;;;9.48;6.60;;;;;;;;;;5059437;28;20206;-69
2022/08/10 07:26:58;;;;;;;10.30;6.55;;;;;;;;;;5062303;28;20235;-69
2022/08/10 07:29:28;;;;;;;8.23;5.93;;;;;;;;;;5057986;28;20540;-69
2022/08/10 07:31:55;;;;;;;8.02;5.55;;;;;;;;;;5054751;28;20273;-69
2022/08/10 07:34:22;;;;;;;8.27;5.88;;;;;;;;;;5060511;28;20217;-69
2022/08/10 07:36:50;;;;;;;9.23;5.05;;;;;;;;;;5061629;28;20185;-68
2022/08/10 07:39:17;;;;;;;7.70;5.10;;;;;;;;;;5064903;28;20637;-69
2022/08/10 07:41:45;;;;;;;8.27;5.05;;;;;;;;;;5049382;28;20177;-68
2022/08/10 07:44:12;;;;;;;10.90;4.57;;;;;;;;;;5049724;28;20221;-70
2022/08/10 07:46:43;;;;;;;6.43;3.40;;;;;;;;;;5068133;28;20663;-69
2022/08/10 07:49:17;;;;;;;6.72;4.88;;;;;;;;;;5070460;28;20276;-69
2022/08/10 07:51:42;;;;;;;5.25;3.95;;;;;;;;;;5063121;28;20189;-69
2022/08/10 07:54:14;;;;;;;6.15;4.55;;;;;;;;;;5056796;28;20208;-68
2022/08/10 07:56:42;;;;;;;5.50;4.53;;;;;;;;;;5062763;28;20181;-69
2022/08/10 07:59:11;;;;;;;7.90;5.28;;;;;;;;;;5058716;28;20238;-68
2022/08/10 08:01:43;;;;;;;11.48;6.28;;;;;;;;;;5064874;28;20660;-70
2022/08/10 08:04:12;;;;;;;10.98;4.93;;;;;;;;;;5058634;28;20197;-68
2022/08/10 08:06:39;;;;;;;4.45;4.05;;;;;;;;;;5050185;28;20412;-69
2022/08/10 08:09:05;;;;;;;4.53;4.13;;;;;;;;;;5065827;28;20177;-68
2022/08/10 08:11:31;;;;;;;7.95;3.70;;;;;;;;;;5062781;28;20184;-69
2022/08/10 08:13:59;;;;;;;5.35;4.10;;;;;;;;;;5060380;28;20184;-69
2022/08/10 08:16:24;;;;;;;8.55;5.22;;;;;;;;;;5061564;28;20252;-69
2022/08/10 08:18:53;;;;;;;9.40;4.40;;;;;;;;;;5054157;28;20276;-69
2022/08/10 08:21:19;;;;;;;5.68;3.58;;;;;;;;;;5058114;28;20691;-68
2022/08/10 08:23:47;;;;;;;8.35;4.00;;;;;;;;;;5053190;28;20241;-68
2022/08/10 08:26:13;;;;;;;7.38;3.50;;;;;;;;;;5067988;28;20311;-68
2022/08/10 08:28:40;;;;;;;5.78;3.33;;;;;;;;;;5067360;28;20187;-71
2022/08/10 08:31:06;;;;;;;3.30;3.00;;;;;;;;;;5061519;28;20748;-68
2022/08/10 08:33:32;;;;;;;7.40;3.67;;;;;;;;;;5050546;28;20756;-69
2022/08/10 08:35:59;;;;;;;5.88;3.33;;;;;;;;;;5067624;28;20185;-68
2022/08/10 08:38:26;;;;;;;5.40;2.97;;;;;;;;;;5065010;28;20230;-68
2022/08/10 08:41:24;;;;;;;3.60;2.63;;;;;;;;;;5052850;28;20216;-69
2022/08/10 08:44:17;;;;;;;3.05;2.53;;;;;;;;;;4998749;28;20228;-68
2022/08/10 08:46:55;;;;;;;3.60;2.42;;;;;;;;;;5052124;28;20618;-68
2022/08/10 08:49:26;;;;;;;3.92;2.88;;;;;;;;;;5052559;28;20185;-68
2022/08/10 08:52:13;;;;;;;3.95;2.30;;;;;;;;;;5055780;28;20217;-69
2022/08/10 08:55:29;;;;;;;4.53;2.85;;;;;;;;;;5066139;28;20189;-71
2022/08/10 08:58:03;;;;;;;3.33;2.20;;;;;;;;;;4988987;28;20234;-70
2022/08/10 09:00:42;;;;;;;2.85;1.92;;;;;;;;;;4997623;28;20242;-68
2022/08/10 09:03:51;;;;;;;2.97;2.10;;;;;;;;;;5044681;28;20211;-70
2022/08/10 09:06:44;;;;;;;4.85;2.47;;;;;;;;;;5048083;28;20232;-68
2022/08/10 09:09:32;;;;;;;4.82;2.10;;;;;;;;;;5061481;28;20186;-70
2022/08/10 09:12:12;;;;;;;3.45;2.20;;;;;;;;;;5060942;28;20177;-69
2022/08/10 09:14:47;;;;;;;3.65;1.77;;;;;;;;;;5064076;28;20534;-70
2022/08/10 09:17:44;;;;;;;3.05;1.85;;;;;;;;;;5065528;28;20184;-69
2022/08/10 09:20:17;;;;;;;6.15;1.80;;;;;;;;;;5066735;28;20558;-71
2022/08/10 09:23:18;;;;;;;4.32;2.08;;;;;;;;;;5065116;28;20663;-68
2022/08/10 09:25:53;;;;;;;4.93;2.70;;;;;;;;;;5068784;28;20520;-69
2022/08/10 09:28:25;;;;;;;5.32;2.17;;;;;;;;;;5058638;28;20189;-69
2022/08/10 09:31:10;;;;;;;2.15;1.65;;;;;;;;;;5050798;28;20186;-69
2022/08/10 09:33:52;;;;;;;3.20;1.50;;;;;;;;;;5053523;28;20195;-70
2022/08/10 09:36:29;;;;;;;3.30;2.03;;;;;;;;;;5051305;28;20731;-69
2022/08/10 09:39:08;;;;;;;8.93;2.08;;;;;;;;;;5052709;28;20188;-69
2022/08/10 09:41:50;;;;;;;3.65;1.95;;;;;;;;;;5066013;28;20593;-69
2022/08/10 09:44:42;;;;;;;4.00;1.50;;;;;;;;;;5062751;28;20215;-68
2022/08/10 09:47:33;;;;;;;3.85;1.40;;;;;;;;;;5068434;28;20199;-70
2022/08/10 09:50:03;;;;;;;4.43;1.90;;;;;;;;;;5060044;28;20192;-70
2022/08/10 09:52:47;;;;;;;3.72;1.60;;;;;;;;;;5066619;28;20180;-69
2022/08/10 09:55:22;;;;;;;3.88;1.90;;;;;;;;;;5067056;28;20179;-69
2022/08/10 09:58:26;;;;;;;2.63;1.67;;;;;;;;;;5070958;28;20184;-70
2022/08/10 10:01:00;;;;;;;5.30;1.73;;;;;;;;;;5062189;28;20488;-69
2022/08/10 10:03:32;;;;;;;2.22;1.48;;;;;;;;;;5056234;28;20196;-67
2022/08/10 10:06:20;;;;;;;1.85;1.55;;;;;;;;;;5057542;28;20201;-66
2022/08/10 10:08:59;;;;;;;1.92;1.27;;;;;;;;;;5064057;28;20193;-69
2022/08/10 10:11:39;;;;;;;2.53;1.52;;;;;;;;;;5071032;28;20230;-68
2022/08/10 10:14:20;;;;;;;1.45;1.35;;;;;;;;;;5069300;28;20648;-69
2022/08/10 10:17:19;;;;;;;4.65;1.50;;;;;;;;;;5065425;28;20719;-69
2022/08/10 10:20:09;;;;;;;1.88;1.30;;;;;;;;;;5058850;28;20664;-69
2022/08/10 10:22:53;;;;;;;4.03;1.35;;;;;;;;;;5059170;28;20185;-70
2022/08/10 10:25:31;;;;;;;1.40;1.00;;;;;;;;;;5062323;28;20296;-69
2022/08/10 10:28:12;;;;;;;1.77;1.30;;;;;;;;;;5067166;28;20236;-67
2022/08/10 10:31:07;;;;;;;2.50;1.20;;;;;;;;;;5061408;28;20192;-67
2022/08/10 10:33:45;;;;;;;2.95;1.38;;;;;;;;;;5050437;28;20235;-68
2022/08/10 10:36:14;;;;;;;3.60;1.35;;;;;;;;;;5050634;28;20185;-70
2022/08/10 10:38:41;;;;;;;4.68;1.27;;;;;;;;;;5062353;28;20173;-69
2022/08/10 10:41:28;;;;;;;2.17;1.25;;;;;;;;;;5053699;28;20192;-69
2022/08/10 10:44:02;;;;;;;3.63;1.40;;;;;;;;;;5061769;28;20200;-69
2022/08/10 10:46:53;;;;;;;3.70;1.88;;;;;;;;;;5054043;28;20290;-68
2022/08/10 10:49:41;;;;;;;4.10;1.60;;;;;;;;;;5041208;28;20677;-71
2022/08/10 10:52:16;;;;;;;3.65;1.50;;;;;;;;;;5049758;28;20330;-66
2022/08/10 10:55:11;;;;;;;2.53;1.70;;;;;;;;;;5056400;28;20173;-68
2022/08/10 10:57:53;;;;;;;2.30;1.85;;;;;;;;;;5062317;28;20184;-69
2022/08/10 11:00:22;;;;;;;2.45;1.40;;;;;;;;;;5055948;28;20488;-67
2022/08/10 11:03:18;;;;;;;2.65;1.45;;;;;;;;;;5064288;28;20272;-68
2022/08/10 11:06:05;;;;;;;4.95;1.98;;;;;;;;;;5057639;28;20256;-69
2022/08/10 11:08:37;;;;;;;4.50;1.42;;;;;;;;;;5073011;28;20313;-68
2022/08/10 11:11:09;;;;;;;3.28;1.45;;;;;;;;;;5059420;28;20177;-68
2022/08/10 11:14:05;;;;;;;4.35;1.67;;;;;;;;;;5053227;28;20201;-68
2022/08/10 11:17:09;;;;;;;5.20;1.60;;;;;;;;;;5063212;28;20268;-70
2022/08/10 11:19:44;;;;;;;4.72;1.60;;;;;;;;;;5067473;28;20207;-69
2022/08/10 11:22:34;;;;;;;2.65;1.35;;;;;;;;;;5067061;28;20618;-68
2022/08/10 11:25:21;;;;;;;3.17;1.33;;;;;;;;;;5053486;28;20541;-69
2022/08/10 11:27:54;;;;;;;3.08;1.40;;;;;;;;;;5049526;28;20225;-66
2022/08/10 11:30:38;;;;;;;5.60;1.50;;;;;;;;;;5057356;28;20217;-68
2022/08/10 11:33:27;;;;;;;1.85;1.52;;;;;;;;;;5049743;28;20564;-68
2022/08/10 11:35:59;;;;;;;1.95;1.35;;;;;;;;;;5062618;28;20235;-67
2022/08/10 11:38:40;;;;;;;2.75;1.20;;;;;;;;;;5059854;28;20644;-69
2022/08/10 11:41:32;;;;;;;2.45;1.00;;;;;;;;;;5062758;28;20750;-75
2022/08/10 11:44:24;;;;;;;1.40;1.15;;;;;;;;;;5052783;28;20193;-71
2022/08/10 11:47:00;;;;;;;3.13;1.05;;;;;;;;;;5049304;28;20187;-67
2022/08/10 11:49:38;;;;;;;2.72;1.20;;;;;;;;;;5048323;28;20223;-68
2022/08/10 11:52:18;;;;;;;2.90;1.30;;;;;;;;;;5053489;28;20195;-68
2022/08/10 11:54:50;;;;;;;2.08;0.90;;;;;;;;;;5052849;28;20189;-68
2022/08/10 11:57:16;;;;;;;2.50;1.08;;;;;;;;;;5058096;28;20185;-68
2022/08/10 11:59:57;;;;;;;2.00;1.15;;;;;;;;;;5054109;28;20482;-70
2022/08/10 12:02:32;;;;;;;1.33;1.23;;;;;;;;;;5064992;28;20184;-70
2022/08/10 12:05:10;;;;;;;2.50;1.40;;;;;;;;;;5067808;28;20261;-68
2022/08/10 12:07:40;;;;;;;6.25;1.40;;;;;;;;;;5069992;28;20217;-68
2022/08/10 12:10:07;;;;;;;3.58;1.20;;;;;;;;;;5069246;28;20238;-68
2022/08/10 12:12:38;;;;;;;1.17;1.00;;;;;;;;;;5059678;28;20188;-67
2022/08/10 12:15:14;;;;;;;2.08;1.00;;;;;;;;;;5062988;28;20286;-66
2022/08/10 12:17:47;;;;;;;3.15;1.20;;;;;;;;;;5070147;28;20264;-67
2022/08/10 12:20:25;;;;;;;2.63;1.52;;;;;;;;;;5057314;28;20177;-70
2022/08/10 12:22:58;;;;;;;1.67;0.93;;;;;;;;;;5068324;28;20211;-70
2022/08/10 12:25:39;;;;;;;3.60;1.20;;;;;;;;;;5071436;28;20235;-69
2022/08/10 12:28:12;;;;;;;5.00;1.60;;;;;;;;;;5061846;28;20221;-70
2022/08/10 12:30:45;;;;;;;2.25;1.40;;;;;;;;;;5052916;28;20182;-70
2022/08/10 12:33:17;;;;;;;2.45;1.02;;;;;;;;;;5051754;28;20204;-74
2022/08/10 12:36:05;;;;;;;0.90;0.90;;;;;;;;;;5066627;28;20272;-69
2022/08/10 12:39:06;;;;;;;1.13;1.02;;;;;;;;;;5070026;28;20651;-66
2022/08/10 12:41:55;;;;;;;1.42;1.13;;;;;;;;;;5070188;28;20177;-65
2022/08/10 12:44:40;;;;;;;1.00;0.75;;;;;;;;;;5071056;28;20547;-66
2022/08/10 12:47:51;;;;;;;2.25;1.20;;;;;;;;;;5052316;28;20243;-67
2022/08/10 12:50:38;;;;;;;2.83;1.10;;;;;;;;;;5034753;28;20211;-67
2022/08/10 12:53:18;;;;;;;2.08;1.30;;;;;;;;;;5058293;28;20231;-69
2022/08/10 12:55:46;;;;;;;2.53;1.25;;;;;;;;;;5052175;28;20590;-69
2022/08/10 12:58:13;;;;;;;1.55;1.35;;;;;;;;;;5065962;28;20676;-68
2022/08/10 13:00:42;;;;;;;2.15;1.42;;;;;;;;;;5053592;28;20290;-69
2022/08/10 13:03:08;;;;;;;1.83;1.05;;;;;;;;;;5050928;28;20232;-71
2022/08/10 13:05:34;;;;;;;2.70;1.40;;;;;;;;;;5067226;28;20236;-69
2022/08/10 13:10:59;;;;;;;2.30;1.30;;;;;;;;;;5057578;28;20270;-68
2022/08/10 13:13:31;;;;;;;2.85;1.20;;;;;;;;;;5057559;28;20645;-69
2022/08/10 13:15:57;;;;;;;1.98;1.27;;;;;;;;;;5061998;28;20177;-72
2022/08/10 13:18:32;;;;;;;1.83;1.33;;;;;;;;;;5066427;28;20384;-69
2022/08/10 13:21:03;;;;;;;1.95;1.05;;;;;;;;;;5070219;28;20628;-68
2022/08/10 13:23:34;;;;;;;3.17;1.10;;;;;;;;;;5060614;28;20306;-71
2022/08/10 13:26:01;;;;;;;2.53;1.20;;;;;;;;;;5070571;28;20611;-69
2022/08/10 13:28:37;;;;;;;5.60;1.85;;;;;;;;;;5071086;28;20263;-69
2022/08/10 13:31:07;;;;;;;1.75;1.27;;;;;;;;;;5052465;28;20201;-69
2022/08/10 13:33:34;;;;;;;4.18;1.30;;;;;;;;;;5050990;28;20173;-68
2022/08/10 13:36:01;;;;;;;3.83;1.13;;;;;;;;;;5069983;28;20191;-67
2022/08/10 13:38:28;;;;;;;1.25;1.08;;;;;;;;;;5058535;28;20189;-68
2022/08/10 13:40:54;;;;;;;1.80;1.10;;;;;;;;;;5050633;28;20181;-67
2022/08/10 13:43:22;;;;;;;4.15;1.33;;;;;;;;;;5065343;28;20188;-67
2022/08/10 13:45:48;;;;;;;2.85;1.33;;;;;;;;;;5051729;28;20189;-69
2022/08/10 13:48:20;;;;;;;2.80;1.27;;;;;;;;;;5051131;28;20239;-69
2022/08/10 13:50:47;;;;;;;2.33;1.08;;;;;;;;;;5057131;28;20638;-68
2022/08/10 13:53:15;;;;;;;2.65;1.30;;;;;;;;;;5050365;28;20726;-68
2022/08/10 13:55:53;;;;;;;1.20;1.02;;;;;;;;;;5051748;28;20193;-68
2022/08/10 13:58:23;;;;;;;3.15;1.13;;;;;;;;;;5050333;28;20185;-68
2022/08/10 14:00:49;;;;;;;3.08;0.90;;;;;;;;;;5058001;28;20235;-69
2022/08/10 14:03:16;;;;;;;2.00;1.17;;;;;;;;;;5059094;28;20190;-68
2022/08/10 14:05:50;;;;;;;1.25;1.08;;;;;;;;;;5062556;28;20179;-70
2022/08/10 14:08:18;;;;;;;1.75;1.40;;;;;;;;;;5068617;28;20188;-70
2022/08/10 14:10:46;;;;;;;1.88;1.20;;;;;;;;;;5068112;28;20184;-70
2022/08/10 14:13:13;;;;;;;2.25;0.90;;;;;;;;;;5056310;28;20200;-66
2022/08/10 14:15:43;;;;;;;2.08;1.10;;;;;;;;;;5063713;28;20196;-67
2022/08/10 14:18:09;;;;;;;2.65;1.02;;;;;;;;;;5050392;28;20212;-67
2022/08/10 14:20:37;;;;;;;4.40;1.17;;;;;;;;;;5053860;28;20204;-68
2022/08/10 14:23:10;;;;;;;1.63;1.10;;;;;;;;;;5066741;28;20556;-67
2022/08/10 14:25:46;;;;;;;2.53;1.20;;;;;;;;;;5054588;28;20185;-67
2022/08/10 14:28:13;;;;;;;3.00;1.45;;;;;;;;;;5070643;28;20743;-67
2022/08/10 14:30:41;;;;;;;1.75;1.20;;;;;;;;;;5057753;28;20268;-68
2022/08/10 14:33:12;;;;;;;3.63;1.27;;;;;;;;;;5057199;28;20444;-67
2022/08/10 14:35:42;;;;;;;1.30;1.13;;;;;;;;;;5055818;28;20254;-67
2022/08/10 14:38:12;;;;;;;1.77;0.93;;;;;;;;;;5060535;28;20181;-66
2022/08/10 14:40:45;;;;;;;2.30;0.90;;;;;;;;;;5049942;28;20667;-69
2022/08/10 14:43:18;;;;;;;1.80;1.20;;;;;;;;;;5054660;28;20644;-69
2022/08/10 14:45:47;;;;;;;1.30;1.20;;;;;;;;;;5058022;28;20192;-68
2022/08/10 14:48:26;;;;;;;1.52;1.38;;;;;;;;;;5067618;28;20666;-73
2022/08/10 14:50:53;;;;;;;2.35;1.10;;;;;;;;;;5068839;28;20188;-69
2022/08/10 14:53:21;;;;;;;1.20;1.10;;;;;;;;;;5065227;28;20183;-71
2022/08/10 14:55:56;;;;;;;2.97;1.10;;;;;;;;;;5059174;28;20192;-68
2022/08/10 14:58:24;;;;;;;1.48;1.23;;;;;;;;;;5066750;28;20468;-68
2022/08/10 15:00:54;;;;;;;2.97;1.42;;;;;;;;;;5064571;28;20176;-67
2022/08/10 15:03:23;;;;;;;1.55;1.10;;;;;;;;;;5066438;28;20199;-66
2022/08/10 15:05:49;;;;;;;1.70;1.00;;;;;;;;;;5060431;28;20180;-67
2022/08/10 15:08:16;;;;;;;1.48;1.10;;;;;;;;;;5069903;28;20639;-67
2022/08/10 15:10:42;;;;;;;1.13;1.02;;;;;;;;;;5064887;28;20181;-66
2022/08/10 15:13:12;;;;;;;1.50;1.20;;;;;;;;;;5049555;28;20664;-67
2022/08/10 15:15:38;;;;;;;2.38;1.10;;;;;;;;;;5050502;28;20664;-68
2022/08/10 15:18:06;;;;;;;2.13;1.10;;;;;;;;;;5049074;28;20187;-68
2022/08/10 15:20:35;;;;;;;3.58;1.27;;;;;;;;;;5064713;28;20270;-68
2022/08/10 15:23:07;;;;;;;2.80;1.30;;;;;;;;;;5052997;28;20645;-68
2022/08/10 15:25:41;;;;;;;1.55;1.25;;;;;;;;;;5053523;28;20265;-67
2022/08/10 15:28:09;;;;;;;1.42;1.30;;;;;;;;;;5067403;28;20227;-68
2022/08/10 15:30:41;;;;;;;5.50;4.32;;;;;;;;;;5065593;28;20655;-67
2022/08/10 15:38:40;;;;;;;4.40;1.50;;;;;;;;;;5047587;28;20200;-70
2022/08/10 15:41:07;;;;;;;4.22;1.50;;;;;;;;;;5063023;28;20589;-69